Kamloops, British Columbia

11:02 PM PDT on August 30, 2014 (GMT -0700)
Kamloops | Change Station
CLOSE
Current Station
Airport
Location: Kamloops,
Elevation: 1132 ft
Nearby Weather Stations

Elev 1132 ft 50.70 °N, 120.44 °W | Updated 1 hour ago

Mostly Cloudy
Mostly Cloudy
57 °F
Feels Like 57 °F
N
4
Wind Variable Wind from East

Tomorrow is forecast to be nearly the same temperature as today.

Today
High -- | Low -- °F
--% Chance of Precip.
Yesterday
High -- | Low -- °F
Precip. -- in
6:12 AM 7:50 PM
Waxing Crescent, 28% visible
Pressure 29.88 in
Visibility 40.0 miles
Clouds Mostly Cloudy 8000 ft
Dew Point 50 °F
Humidity 77%
Rainfall 0.00 in
Snow Depth Not available.
UV 0 out of 12
Pollen Not available.
Air Quality Not available.
Flu Activity Not available.
METAR CYKA 310500Z 08003KT 020V110 40SM BKN080 14/10 A2987 RMK AC6 SLP118 DENSITY ALT 1300FT

More Conditions Fewer Conditions

Pressure 29.88 in
Visibility 40.0 miles
Clouds Mostly Cloudy 8000 ft
Dew Point 50 °F
Humidity 77%
Rainfall 0.00 in
Snow Depth Not available.
UV 0 out of 12
Pollen Not available.
Air Quality Not available.
Flu Activity Not available.
METAR CYKA 310500Z 08003KT 020V110 40SM BKN080 14/10 A2987 RMK AC6 SLP118 DENSITY ALT 1300FT

More Conditions Fewer Conditions

10-Day Weather Forecast

Almanac

Astronomy

Aug. 30, 2014 Rise Set
Actual Time 6:12 AM PDT 7:50 PM PDT
Civil Twilight 5:38 AM PDT 8:25 PM PDT
Nautical Twilight 4:56 AM PDT 9:07 PM PDT
Astronomical Twilight 4:09 AM PDT 9:53 PM PDT
Moon 11:40 AM PDT (8/30) 9:52 PM PDT (8/30)
Length of Visible Light 14h 46m
Length of Day
13h 37m
Tomorrow will be 3m 41s shorter.
Waxing Crescent, 28% of the Moon is Illuminated
Aug 31
Waxing Crescent
Sep 2
First Quarter
Sep 8
Full
Sep 15
Last Quarter
Sep 24
New

Today's Extremes

Country Highs Country Lows

Community

WunderPhotos

Upload Photos

1,748,801 photos uploaded!

Nearby

Snow Depth

Not available.

Earthquake Activity

City Distance Mag. Time & Date
No recent earthquake activity has been reported nearby.
Minimum magnitude displayed is 2.5.

Coastal Water Temperatures

Place Temperature
No Stations Reporting

Nearby Weather Stations